Terminal Aerodrome Forecast
Issued by NWS Cleveland, OH

Home | Current Version | Previous Version | Graphics & Text | Print | Product List | Glossary On
Versions: 1 2 3 4 5 6 7 8 9 10 11 12 13 14 15 16 17 18 19 20
000
FTUS41 KCLE 261700
TAFERI
TAF
KERI 261739Z 2618/2718 03014KT 1 1/2SM -SN OVC025
     FM262200 02012KT 6SM -SN OVC025
     FM270000 36008KT P6SM BKN025 BKN070
     FM270700 34006KT P6SM SCT025
     FM271400 27008KT P6SM SKC=

USA.gov is the U.S. government's official web portal to all federal, state and local government web resources and services.